sensor_id;sensor_type;location;lat;lon;timestamp;temperature;humidity
47791;DHT22;33547;49.044;1.156;2022-11-20T00:01:31;18.50;57.50
47791;DHT22;33547;49.044;1.156;2022-11-20T00:03:57;18.50;57.50
47791;DHT22;33547;49.044;1.156;2022-11-20T00:06:25;18.50;57.60
47791;DHT22;33547;49.044;1.156;2022-11-20T00:08:54;18.50;57.80
47791;DHT22;33547;49.044;1.156;2022-11-20T00:11:23;18.50;57.70
47791;DHT22;33547;49.044;1.156;2022-11-20T00:13:51;18.40;57.60
47791;DHT22;33547;49.044;1.156;2022-11-20T00:16:20;18.50;57.70
47791;DHT22;33547;49.044;1.156;2022-11-20T00:18:48;18.40;57.60
47791;DHT22;33547;49.044;1.156;2022-11-20T00:21:16;18.40;57.60
47791;DHT22;33547;49.044;1.156;2022-11-20T00:23:43;18.40;57.60
47791;DHT22;33547;49.044;1.156;2022-11-20T00:26:12;18.40;57.60
47791;DHT22;33547;49.044;1.156;2022-11-20T00:28:40;18.40;57.60
47791;DHT22;33547;49.044;1.156;2022-11-20T00:31:10;18.40;57.70
47791;DHT22;33547;49.044;1.156;2022-11-20T00:33:37;18.40;57.70
47791;DHT22;33547;49.044;1.156;2022-11-20T00:36:08;18.40;57.70
47791;DHT22;33547;49.044;1.156;2022-11-20T00:38:35;18.40;57.70
47791;DHT22;33547;49.044;1.156;2022-11-20T00:41:04;18.40;57.70
47791;DHT22;33547;49.044;1.156;2022-11-20T00:43:32;18.40;57.80
47791;DHT22;33547;49.044;1.156;2022-11-20T00:46:02;18.30;57.80
47791;DHT22;33547;49.044;1.156;2022-11-20T00:48:30;18.30;57.80
47791;DHT22;33547;49.044;1.156;2022-11-20T00:50:57;18.30;57.80
47791;DHT22;33547;49.044;1.156;2022-11-20T00:53:23;18.30;57.80
47791;DHT22;33547;49.044;1.156;2022-11-20T00:55:56;18.30;57.80
47791;DHT22;33547;49.044;1.156;2022-11-20T00:58:28;18.30;57.80
47791;DHT22;33547;49.044;1.156;2022-11-20T01:01:00;18.30;57.90
47791;DHT22;33547;49.044;1.156;2022-11-20T01:03:27;18.30;58.00
47791;DHT22;33547;49.044;1.156;2022-11-20T01:05:53;18.30;58.00
47791;DHT22;33547;49.044;1.156;2022-11-20T01:08:19;18.20;58.00
47791;DHT22;33547;49.044;1.156;2022-11-20T01:10:45;18.20;58.00
47791;DHT22;33547;49.044;1.156;2022-11-20T01:13:10;18.20;58.00
47791;DHT22;33547;49.044;1.156;2022-11-20T01:15:55;18.20;58.00
47791;DHT22;33547;49.044;1.156;2022-11-20T01:18:20;18.20;58.10
47791;DHT22;33547;49.044;1.156;2022-11-20T01:20:46;18.20;58.10
47791;DHT22;33547;49.044;1.156;2022-11-20T01:23:12;18.20;58.20
47791;DHT22;33547;49.044;1.156;2022-11-20T01:25:38;18.20;58.20
47791;DHT22;33547;49.044;1.156;2022-11-20T01:28:04;18.20;58.20
47791;DHT22;33547;49.044;1.156;2022-11-20T01:30:29;18.20;58.20
47791;DHT22;33547;49.044;1.156;2022-11-20T01:32:55;18.20;58.20
47791;DHT22;33547;49.044;1.156;2022-11-20T01:35:21;18.10;58.10
47791;DHT22;33547;49.044;1.156;2022-11-20T01:37:47;18.10;58.20
47791;DHT22;33547;49.044;1.156;2022-11-20T01:40:13;18.10;58.20
47791;DHT22;33547;49.044;1.156;2022-11-20T01:42:46;18.10;58.20
47791;DHT22;33547;49.044;1.156;2022-11-20T01:48:26;18.10;58.30
47791;DHT22;33547;49.044;1.156;2022-11-20T01:50:58;18.10;58.40
47791;DHT22;33547;49.044;1.156;2022-11-20T01:53:30;18.00;58.40
47791;DHT22;33547;49.044;1.156;2022-11-20T01:56:00;18.10;58.40
47791;DHT22;33547;49.044;1.156;2022-11-20T01:58:33;18.00;58.30
47791;DHT22;33547;49.044;1.156;2022-11-20T02:01:02;18.00;58.40
47791;DHT22;33547;49.044;1.156;2022-11-20T02:03:28;18.00;58.40
47791;DHT22;33547;49.044;1.156;2022-11-20T02:06:05;18.00;58.50
47791;DHT22;33547;49.044;1.156;2022-11-20T02:08:45;18.00;58.50
47791;DHT22;33547;49.044;1.156;2022-11-20T02:11:11;18.00;58.60
47791;DHT22;33547;49.044;1.156;2022-11-20T02:13:41;18.00;59.70
47791;DHT22;33547;49.044;1.156;2022-11-20T02:16:24;18.00;61.20
47791;DHT22;33547;49.044;1.156;2022-11-20T02:18:52;18.00;61.30
47791;DHT22;33547;49.044;1.156;2022-11-20T02:21:36;18.00;61.20
47791;DHT22;33547;49.044;1.156;2022-11-20T02:24:21;18.00;60.80
47791;DHT22;33547;49.044;1.156;2022-11-20T02:27:03;18.10;60.20
47791;DHT22;33547;49.044;1.156;2022-11-20T02:32:39;18.20;60.00
47791;DHT22;33547;49.044;1.156;2022-11-20T02:37:55;18.30;59.70
47791;DHT22;33547;49.044;1.156;2022-11-20T02:40:22;18.30;60.00
47791;DHT22;33547;49.044;1.156;2022-11-20T02:42:55;18.40;59.90
47791;DHT22;33547;49.044;1.156;2022-11-20T02:45:21;18.40;59.90
47791;DHT22;33547;49.044;1.156;2022-11-20T02:47:48;18.40;60.00
47791;DHT22;33547;49.044;1.156;2022-11-20T02:50:14;18.40;60.10
47791;DHT22;33547;49.044;1.156;2022-11-20T02:52:40;18.40;60.60
47791;DHT22;33547;49.044;1.156;2022-11-20T02:55:06;18.40;60.40
47791;DHT22;33547;49.044;1.156;2022-11-20T02:57:32;18.40;60.50
47791;DHT22;33547;49.044;1.156;2022-11-20T02:59:59;18.40;60.80
47791;DHT22;33547;49.044;1.156;2022-11-20T03:02:24;18.40;61.00
47791;DHT22;33547;49.044;1.156;2022-11-20T03:04:50;18.40;60.80
47791;DHT22;33547;49.044;1.156;2022-11-20T03:07:16;18.40;60.80
47791;DHT22;33547;49.044;1.156;2022-11-20T03:09:42;18.40;61.20
47791;DHT22;33547;49.044;1.156;2022-11-20T03:12:07;18.40;61.40
47791;DHT22;33547;49.044;1.156;2022-11-20T03:14:34;18.40;61.20
47791;DHT22;33547;49.044;1.156;2022-11-20T03:17:00;18.30;61.20
47791;DHT22;33547;49.044;1.156;2022-11-20T03:19:26;18.30;61.20
47791;DHT22;33547;49.044;1.156;2022-11-20T03:21:51;18.30;61.30
47791;DHT22;33547;49.044;1.156;2022-11-20T03:24:17;18.30;61.30
47791;DHT22;33547;49.044;1.156;2022-11-20T03:26:43;18.30;61.30
47791;DHT22;33547;49.044;1.156;2022-11-20T03:29:09;18.30;61.40
47791;DHT22;33547;49.044;1.156;2022-11-20T03:31:37;18.30;61.40
47791;DHT22;33547;49.044;1.156;2022-11-20T03:34:06;18.30;61.60
47791;DHT22;33547;49.044;1.156;2022-11-20T03:36:34;18.20;61.60
47791;DHT22;33547;49.044;1.156;2022-11-20T03:41:40;18.20;61.60
47791;DHT22;33547;49.044;1.156;2022-11-20T03:44:10;18.20;61.60
47791;DHT22;33547;49.044;1.156;2022-11-20T03:46:37;18.20;61.60
47791;DHT22;33547;49.044;1.156;2022-11-20T03:49:03;18.20;61.50
47791;DHT22;33547;49.044;1.156;2022-11-20T03:51:31;18.20;61.50
47791;DHT22;33547;49.044;1.156;2022-11-20T03:54:03;18.20;61.50
47791;DHT22;33547;49.044;1.156;2022-11-20T03:56:33;18.10;61.40
47791;DHT22;33547;49.044;1.156;2022-11-20T03:59:00;18.10;61.50
47791;DHT22;33547;49.044;1.156;2022-11-20T04:01:32;18.10;61.50
47791;DHT22;33547;49.044;1.156;2022-11-20T04:03:59;18.10;61.50
47791;DHT22;33547;49.044;1.156;2022-11-20T04:06:36;18.10;61.60
47791;DHT22;33547;49.044;1.156;2022-11-20T04:09:03;18.10;61.60
47791;DHT22;33547;49.044;1.156;2022-11-20T04:11:31;18.10;61.60
47791;DHT22;33547;49.044;1.156;2022-11-20T04:14:03;18.00;61.60
47791;DHT22;33547;49.044;1.156;2022-11-20T04:16:32;18.10;61.60
47791;DHT22;33547;49.044;1.156;2022-11-20T04:19:01;18.00;62.30
47791;DHT22;33547;49.044;1.156;2022-11-20T04:21:28;18.10;62.30
47791;DHT22;33547;49.044;1.156;2022-11-20T04:23:55;18.00;61.70
47791;DHT22;33547;49.044;1.156;2022-11-20T04:26:23;18.10;61.60
47791;DHT22;33547;49.044;1.156;2022-11-20T04:28:50;18.00;61.50
47791;DHT22;33547;49.044;1.156;2022-11-20T04:31:18;18.00;61.40
47791;DHT22;33547;49.044;1.156;2022-11-20T04:33:49;18.00;61.50
47791;DHT22;33547;49.044;1.156;2022-11-20T04:36:20;18.00;61.50
47791;DHT22;33547;49.044;1.156;2022-11-20T04:38:54;18.00;61.50
47791;DHT22;33547;49.044;1.156;2022-11-20T04:41:27;18.00;62.00
47791;DHT22;33547;49.044;1.156;2022-11-20T04:43:56;18.00;62.50
47791;DHT22;33547;49.044;1.156;2022-11-20T04:46:33;18.00;62.50
47791;DHT22;33547;49.044;1.156;2022-11-20T04:49:01;18.00;62.00
47791;DHT22;33547;49.044;1.156;2022-11-20T04:51:27;18.10;61.40
47791;DHT22;33547;49.044;1.156;2022-11-20T04:53:53;18.20;61.20
47791;DHT22;33547;49.044;1.156;2022-11-20T04:56:19;18.20;62.00
47791;DHT22;33547;49.044;1.156;2022-11-20T04:58:45;18.30;61.00
47791;DHT22;33547;49.044;1.156;2022-11-20T05:01:13;18.30;61.00
47791;DHT22;33547;49.044;1.156;2022-11-20T05:03:43;18.30;60.80
47791;DHT22;33547;49.044;1.156;2022-11-20T05:06:12;18.40;60.90
47791;DHT22;33547;49.044;1.156;2022-11-20T05:08:39;18.40;60.90
47791;DHT22;33547;49.044;1.156;2022-11-20T05:11:10;18.40;61.00
47791;DHT22;33547;49.044;1.156;2022-11-20T05:13:40;18.50;61.30
47791;DHT22;33547;49.044;1.156;2022-11-20T05:16:18;18.40;61.10
47791;DHT22;33547;49.044;1.156;2022-11-20T05:18:45;18.50;61.20
47791;DHT22;33547;49.044;1.156;2022-11-20T05:21:12;18.50;61.20
47791;DHT22;33547;49.044;1.156;2022-11-20T05:23:39;18.60;61.30
47791;DHT22;33547;49.044;1.156;2022-11-20T05:26:08;18.60;61.90
47791;DHT22;33547;49.044;1.156;2022-11-20T05:28:38;18.60;61.20
47791;DHT22;33547;49.044;1.156;2022-11-20T05:31:09;18.60;61.30
47791;DHT22;33547;49.044;1.156;2022-11-20T05:33:43;18.70;61.50
47791;DHT22;33547;49.044;1.156;2022-11-20T05:36:11;18.70;61.50
47791;DHT22;33547;49.044;1.156;2022-11-20T05:38:37;18.80;61.70
47791;DHT22;33547;49.044;1.156;2022-11-20T05:41:08;18.80;61.70
47791;DHT22;33547;49.044;1.156;2022-11-20T05:43:36;18.80;61.70
47791;DHT22;33547;49.044;1.156;2022-11-20T05:46:04;18.80;61.70
47791;DHT22;33547;49.044;1.156;2022-11-20T05:48:31;18.90;61.80
47791;DHT22;33547;49.044;1.156;2022-11-20T05:50:58;18.90;61.70
47791;DHT22;33547;49.044;1.156;2022-11-20T05:53:25;18.90;61.70
47791;DHT22;33547;49.044;1.156;2022-11-20T05:56:02;18.90;61.80
47791;DHT22;33547;49.044;1.156;2022-11-20T05:58:29;19.00;61.80
47791;DHT22;33547;49.044;1.156;2022-11-20T06:01:06;19.00;61.90
47791;DHT22;33547;49.044;1.156;2022-11-20T06:03:35;19.00;61.70
47791;DHT22;33547;49.044;1.156;2022-11-20T06:06:02;19.00;61.70
47791;DHT22;33547;49.044;1.156;2022-11-20T06:08:28;19.10;61.80
47791;DHT22;33547;49.044;1.156;2022-11-20T06:10:54;19.10;61.70
47791;DHT22;33547;49.044;1.156;2022-11-20T06:13:20;19.20;61.90
47791;DHT22;33547;49.044;1.156;2022-11-20T06:15:52;19.20;61.90
47791;DHT22;33547;49.044;1.156;2022-11-20T06:18:19;19.20;61.80
47791;DHT22;33547;49.044;1.156;2022-11-20T06:20:45;19.30;61.80
47791;DHT22;33547;49.044;1.156;2022-11-20T06:23:12;19.20;61.90
47791;DHT22;33547;49.044;1.156;2022-11-20T06:25:42;19.30;61.80
47791;DHT22;33547;49.044;1.156;2022-11-20T06:28:08;19.30;61.70
47791;DHT22;33547;49.044;1.156;2022-11-20T06:30:35;19.40;61.60
47791;DHT22;33547;49.044;1.156;2022-11-20T06:33:01;19.40;61.70
47791;DHT22;33547;49.044;1.156;2022-11-20T06:35:27;19.40;61.60
47791;DHT22;33547;49.044;1.156;2022-11-20T06:37:53;19.40;61.60
47791;DHT22;33547;49.044;1.156;2022-11-20T06:40:18;19.40;61.40
47791;DHT22;33547;49.044;1.156;2022-11-20T06:42:44;19.50;61.50
47791;DHT22;33547;49.044;1.156;2022-11-20T06:45:10;19.50;61.50
47791;DHT22;33547;49.044;1.156;2022-11-20T06:47:36;19.50;61.40
47791;DHT22;33547;49.044;1.156;2022-11-20T06:50:02;19.50;61.40
47791;DHT22;33547;49.044;1.156;2022-11-20T06:52:28;19.50;61.30
47791;DHT22;33547;49.044;1.156;2022-11-20T06:54:54;19.60;61.40
47791;DHT22;33547;49.044;1.156;2022-11-20T06:57:20;19.60;61.40
47791;DHT22;33547;49.044;1.156;2022-11-20T06:59:45;19.60;61.40
47791;DHT22;33547;49.044;1.156;2022-11-20T07:02:11;19.70;61.40
47791;DHT22;33547;49.044;1.156;2022-11-20T07:04:38;19.70;61.30
47791;DHT22;33547;49.044;1.156;2022-11-20T07:07:04;19.70;61.30
47791;DHT22;33547;49.044;1.156;2022-11-20T07:09:31;19.70;61.30
47791;DHT22;33547;49.044;1.156;2022-11-20T07:11:58;19.70;61.30
47791;DHT22;33547;49.044;1.156;2022-11-20T07:14:23;19.80;61.40
47791;DHT22;33547;49.044;1.156;2022-11-20T07:16:49;19.70;61.20
47791;DHT22;33547;49.044;1.156;2022-11-20T07:19:15;19.70;61.20
47791;DHT22;33547;49.044;1.156;2022-11-20T07:21:41;19.70;61.20
47791;DHT22;33547;49.044;1.156;2022-11-20T07:24:07;19.70;61.20
47791;DHT22;33547;49.044;1.156;2022-11-20T07:26:32;19.70;61.50
47791;DHT22;33547;49.044;1.156;2022-11-20T07:28:58;19.70;61.40
47791;DHT22;33547;49.044;1.156;2022-11-20T07:31:24;19.70;62.00
47791;DHT22;33547;49.044;1.156;2022-11-20T07:33:50;19.70;61.30
47791;DHT22;33547;49.044;1.156;2022-11-20T07:36:16;19.70;61.40
47791;DHT22;33547;49.044;1.156;2022-11-20T07:38:41;19.70;61.50
47791;DHT22;33547;49.044;1.156;2022-11-20T07:41:07;19.60;61.40
47791;DHT22;33547;49.044;1.156;2022-11-20T07:43:33;19.70;61.60
47791;DHT22;33547;49.044;1.156;2022-11-20T07:45:59;19.60;61.50
47791;DHT22;33547;49.044;1.156;2022-11-20T07:48:25;19.60;61.20
47791;DHT22;33547;49.044;1.156;2022-11-20T07:50:55;19.70;61.00
47791;DHT22;33547;49.044;1.156;2022-11-20T07:53:22;19.60;61.40
47791;DHT22;33547;49.044;1.156;2022-11-20T07:55:48;19.70;60.80
47791;DHT22;33547;49.044;1.156;2022-11-20T07:58:14;19.70;60.60
47791;DHT22;33547;49.044;1.156;2022-11-20T08:00:41;19.70;60.30
47791;DHT22;33547;49.044;1.156;2022-11-20T08:03:07;19.80;60.10
47791;DHT22;33547;49.044;1.156;2022-11-20T08:05:33;19.80;59.90
47791;DHT22;33547;49.044;1.156;2022-11-20T08:07:59;19.80;59.70
47791;DHT22;33547;49.044;1.156;2022-11-20T08:10:25;19.80;59.60
47791;DHT22;33547;49.044;1.156;2022-11-20T08:12:52;19.80;59.50
47791;DHT22;33547;49.044;1.156;2022-11-20T08:15:39;19.80;59.50
47791;DHT22;33547;49.044;1.156;2022-11-20T08:18:07;19.80;59.70
47791;DHT22;33547;49.044;1.156;2022-11-20T08:20:35;19.80;59.50
47791;DHT22;33547;49.044;1.156;2022-11-20T08:23:02;19.80;59.30
47791;DHT22;33547;49.044;1.156;2022-11-20T08:25:29;19.80;59.20
47791;DHT22;33547;49.044;1.156;2022-11-20T08:27:59;19.80;59.10
47791;DHT22;33547;49.044;1.156;2022-11-20T08:30:26;19.80;59.00
47791;DHT22;33547;49.044;1.156;2022-11-20T08:32:53;19.90;59.00
47791;DHT22;33547;49.044;1.156;2022-11-20T08:35:20;19.90;59.00
47791;DHT22;33547;49.044;1.156;2022-11-20T08:37:47;19.90;58.90
47791;DHT22;33547;49.044;1.156;2022-11-20T08:40:13;19.90;58.90
47791;DHT22;33547;49.044;1.156;2022-11-20T08:42:50;19.90;58.90
47791;DHT22;33547;49.044;1.156;2022-11-20T08:45:17;19.90;58.80
47791;DHT22;33547;49.044;1.156;2022-11-20T08:47:44;19.90;58.80
47791;DHT22;33547;49.044;1.156;2022-11-20T08:50:11;19.90;58.70
47791;DHT22;33547;49.044;1.156;2022-11-20T08:52:38;20.00;58.80
47791;DHT22;33547;49.044;1.156;2022-11-20T08:55:06;19.90;58.70
47791;DHT22;33547;49.044;1.156;2022-11-20T08:57:33;20.00;58.70
47791;DHT22;33547;49.044;1.156;2022-11-20T08:59:59;19.90;58.80
47791;DHT22;33547;49.044;1.156;2022-11-20T09:02:25;19.90;58.70
47791;DHT22;33547;49.044;1.156;2022-11-20T09:04:51;19.90;58.60
47791;DHT22;33547;49.044;1.156;2022-11-20T09:07:18;19.90;58.50
47791;DHT22;33547;49.044;1.156;2022-11-20T09:09:45;19.90;58.50
47791;DHT22;33547;49.044;1.156;2022-11-20T09:12:10;19.90;58.50
47791;DHT22;33547;49.044;1.156;2022-11-20T09:14:36;19.80;58.30
47791;DHT22;33547;49.044;1.156;2022-11-20T09:17:02;19.80;58.10
47791;DHT22;33547;49.044;1.156;2022-11-20T09:19:28;19.80;58.30
47791;DHT22;33547;49.044;1.156;2022-11-20T09:21:53;19.80;58.10
47791;DHT22;33547;49.044;1.156;2022-11-20T09:24:19;19.80;58.00
47791;DHT22;33547;49.044;1.156;2022-11-20T09:26:48;19.70;58.20
47791;DHT22;33547;49.044;1.156;2022-11-20T09:29:14;19.70;57.90
47791;DHT22;33547;49.044;1.156;2022-11-20T09:31:39;19.70;57.90
47791;DHT22;33547;49.044;1.156;2022-11-20T09:34:05;19.60;58.10
47791;DHT22;33547;49.044;1.156;2022-11-20T09:36:31;19.60;57.50
47791;DHT22;33547;49.044;1.156;2022-11-20T09:38:57;19.60;57.60
47791;DHT22;33547;49.044;1.156;2022-11-20T09:41:56;19.60;57.20
47791;DHT22;33547;49.044;1.156;2022-11-20T09:50:30;19.80;57.50
47791;DHT22;33547;49.044;1.156;2022-11-20T09:56:08;19.80;57.50
47791;DHT22;33547;49.044;1.156;2022-11-20T09:58:44;19.80;57.50
47791;DHT22;33547;49.044;1.156;2022-11-20T10:01:17;19.80;57.50
47791;DHT22;33547;49.044;1.156;2022-11-20T10:06:34;19.90;57.30
47791;DHT22;33547;49.044;1.156;2022-11-20T10:09:31;19.90;57.60
47791;DHT22;33547;49.044;1.156;2022-11-20T10:20:44;19.90;58.00
47791;DHT22;33547;49.044;1.156;2022-11-20T10:29:20;20.00;57.70
47791;DHT22;33547;49.044;1.156;2022-11-20T10:32:07;20.00;57.70
47791;DHT22;33547;49.044;1.156;2022-11-20T10:35:14;20.00;57.60
47791;DHT22;33547;49.044;1.156;2022-11-20T10:37:43;20.10;57.50
47791;DHT22;33547;49.044;1.156;2022-11-20T10:43:04;20.10;57.30
47791;DHT22;33547;49.044;1.156;2022-11-20T10:45:47;20.00;57.40
47791;DHT22;33547;49.044;1.156;2022-11-20T10:48:25;20.10;57.20
47791;DHT22;33547;49.044;1.156;2022-11-20T10:51:07;20.10;57.20
47791;DHT22;33547;49.044;1.156;2022-11-20T10:56:40;20.00;56.70
47791;DHT22;33547;49.044;1.156;2022-11-20T11:02:19;20.00;57.00
47791;DHT22;33547;49.044;1.156;2022-11-20T11:04:49;20.00;57.50
47791;DHT22;33547;49.044;1.156;2022-11-20T11:07:29;20.00;56.90
47791;DHT22;33547;49.044;1.156;2022-11-20T11:09:57;20.00;56.70
47791;DHT22;33547;49.044;1.156;2022-11-20T11:12:28;20.00;56.80
47791;DHT22;33547;49.044;1.156;2022-11-20T11:14:56;19.90;56.60
47791;DHT22;33547;49.044;1.156;2022-11-20T11:17:31;19.90;56.60
47791;DHT22;33547;49.044;1.156;2022-11-20T11:20:14;19.90;56.70
47791;DHT22;33547;49.044;1.156;2022-11-20T11:22:53;19.90;56.60
47791;DHT22;33547;49.044;1.156;2022-11-20T11:25:28;19.90;56.80
47791;DHT22;33547;49.044;1.156;2022-11-20T11:28:00;19.90;56.90
47791;DHT22;33547;49.044;1.156;2022-11-20T11:30:29;19.90;57.00
47791;DHT22;33547;49.044;1.156;2022-11-20T11:33:04;19.90;57.70
47791;DHT22;33547;49.044;1.156;2022-11-20T11:35:31;19.90;57.40
47791;DHT22;33547;49.044;1.156;2022-11-20T11:38:06;19.90;57.60
47791;DHT22;33547;49.044;1.156;2022-11-20T11:40:39;19.90;57.70
47791;DHT22;33547;49.044;1.156;2022-11-20T11:43:16;20.00;57.90
47791;DHT22;33547;49.044;1.156;2022-11-20T11:46:31;20.00;58.00
47791;DHT22;33547;49.044;1.156;2022-11-20T11:54:47;20.10;58.30
47791;DHT22;33547;49.044;1.156;2022-11-20T11:57:19;20.20;58.50
47791;DHT22;33547;49.044;1.156;2022-11-20T12:02:46;20.20;58.70
47791;DHT22;33547;49.044;1.156;2022-11-20T12:08:09;20.30;58.50
47791;DHT22;33547;49.044;1.156;2022-11-20T12:13:54;20.30;58.50
47791;DHT22;33547;49.044;1.156;2022-11-20T12:16:33;20.40;58.40
47791;DHT22;33547;49.044;1.156;2022-11-20T12:19:01;20.40;58.80
47791;DHT22;33547;49.044;1.156;2022-11-20T12:30:02;20.40;58.00
47791;DHT22;33547;49.044;1.156;2022-11-20T12:39:39;20.40;58.30
47791;DHT22;33547;49.044;1.156;2022-11-20T12:53:05;20.40;57.80
47791;DHT22;33547;49.044;1.156;2022-11-20T12:58:26;20.40;58.00
47791;DHT22;33547;49.044;1.156;2022-11-20T13:01:20;20.30;57.50
47791;DHT22;33547;49.044;1.156;2022-11-20T13:07:08;20.30;57.20
47791;DHT22;33547;49.044;1.156;2022-11-20T13:09:40;20.30;57.50
47791;DHT22;33547;49.044;1.156;2022-11-20T13:17:59;20.20;57.30
47791;DHT22;33547;49.044;1.156;2022-11-20T13:20:27;20.20;57.00
47791;DHT22;33547;49.044;1.156;2022-11-20T13:22:54;20.20;57.20
47791;DHT22;33547;49.044;1.156;2022-11-20T13:25:37;20.20;57.20
47791;DHT22;33547;49.044;1.156;2022-11-20T13:30:48;20.20;57.10
47791;DHT22;33547;49.044;1.156;2022-11-20T13:33:33;20.20;57.20
47791;DHT22;33547;49.044;1.156;2022-11-20T13:36:06;20.20;57.10
47791;DHT22;33547;49.044;1.156;2022-11-20T13:38:52;20.20;57.20
47791;DHT22;33547;49.044;1.156;2022-11-20T13:41:38;20.20;57.10
47791;DHT22;33547;49.044;1.156;2022-11-20T13:44:13;20.30;57.20
47791;DHT22;33547;49.044;1.156;2022-11-20T13:46:43;20.30;57.20
47791;DHT22;33547;49.044;1.156;2022-11-20T13:53:02;20.30;57.20
47791;DHT22;33547;49.044;1.156;2022-11-20T13:58:40;20.30;57.10
47791;DHT22;33547;49.044;1.156;2022-11-20T14:01:23;20.30;57.10
47791;DHT22;33547;49.044;1.156;2022-11-20T14:03:51;20.30;57.20
47791;DHT22;33547;49.044;1.156;2022-11-20T14:06:32;20.30;57.20
47791;DHT22;33547;49.044;1.156;2022-11-20T14:09:00;20.30;57.10
47791;DHT22;33547;49.044;1.156;2022-11-20T14:11:28;20.20;57.10
47791;DHT22;33547;49.044;1.156;2022-11-20T14:14:00;20.30;57.20
47791;DHT22;33547;49.044;1.156;2022-11-20T14:16:33;20.20;57.10
47791;DHT22;33547;49.044;1.156;2022-11-20T14:19:29;20.20;57.70
47791;DHT22;33547;49.044;1.156;2022-11-20T14:24:46;20.20;56.90
47791;DHT22;33547;49.044;1.156;2022-11-20T14:27:26;20.20;57.10
47791;DHT22;33547;49.044;1.156;2022-11-20T14:29:52;20.20;57.10
47791;DHT22;33547;49.044;1.156;2022-11-20T14:32:19;20.20;57.10
47791;DHT22;33547;49.044;1.156;2022-11-20T14:34:49;20.20;57.10
47791;DHT22;33547;49.044;1.156;2022-11-20T14:37:24;20.20;57.10
47791;DHT22;33547;49.044;1.156;2022-11-20T14:39:55;20.10;57.50
47791;DHT22;33547;49.044;1.156;2022-11-20T14:42:26;20.10;57.00
47791;DHT22;33547;49.044;1.156;2022-11-20T14:44:58;20.10;57.00
47791;DHT22;33547;49.044;1.156;2022-11-20T14:47:30;20.10;57.00
47791;DHT22;33547;49.044;1.156;2022-11-20T14:49:57;20.10;56.90
47791;DHT22;33547;49.044;1.156;2022-11-20T14:52:26;20.10;57.00
47791;DHT22;33547;49.044;1.156;2022-11-20T14:54:54;20.00;56.90
47791;DHT22;33547;49.044;1.156;2022-11-20T14:57:32;20.00;56.90
47791;DHT22;33547;49.044;1.156;2022-11-20T15:02:47;20.00;56.90
47791;DHT22;33547;49.044;1.156;2022-11-20T15:05:15;20.00;56.90
47791;DHT22;33547;49.044;1.156;2022-11-20T15:07:47;20.00;57.60
47791;DHT22;33547;49.044;1.156;2022-11-20T15:10:20;20.10;57.00
47791;DHT22;33547;49.044;1.156;2022-11-20T15:13:05;20.10;57.00
47791;DHT22;33547;49.044;1.156;2022-11-20T15:15:48;20.10;57.00
47791;DHT22;33547;49.044;1.156;2022-11-20T15:20:58;20.20;57.00
47791;DHT22;33547;49.044;1.156;2022-11-20T15:23:27;20.20;57.00
47791;DHT22;33547;49.044;1.156;2022-11-20T15:25:54;20.20;57.00
47791;DHT22;33547;49.044;1.156;2022-11-20T15:28:30;20.20;57.10
47791;DHT22;33547;49.044;1.156;2022-11-20T15:30:58;20.10;57.10
47791;DHT22;33547;49.044;1.156;2022-11-20T15:33:24;20.20;57.20
47791;DHT22;33547;49.044;1.156;2022-11-20T15:35:49;20.20;57.30
47791;DHT22;33547;49.044;1.156;2022-11-20T15:38:15;20.20;57.50
47791;DHT22;33547;49.044;1.156;2022-11-20T15:40:41;20.20;57.60
47791;DHT22;33547;49.044;1.156;2022-11-20T15:43:07;20.20;57.60
47791;DHT22;33547;49.044;1.156;2022-11-20T15:46:03;20.20;57.60
47791;DHT22;33547;49.044;1.156;2022-11-20T15:48:43;20.20;57.50
47791;DHT22;33547;49.044;1.156;2022-11-20T15:53:40;20.20;57.40
47791;DHT22;33547;49.044;1.156;2022-11-20T15:56:11;20.20;57.40
47791;DHT22;33547;49.044;1.156;2022-11-20T15:58:38;20.20;57.50
47791;DHT22;33547;49.044;1.156;2022-11-20T16:01:04;20.20;57.50
47791;DHT22;33547;49.044;1.156;2022-11-20T16:03:30;20.20;57.50
47791;DHT22;33547;49.044;1.156;2022-11-20T16:05:56;20.20;57.60
47791;DHT22;33547;49.044;1.156;2022-11-20T16:08:21;20.20;57.60
47791;DHT22;33547;49.044;1.156;2022-11-20T16:10:47;20.20;57.60
47791;DHT22;33547;49.044;1.156;2022-11-20T16:13:15;20.20;57.60
47791;DHT22;33547;49.044;1.156;2022-11-20T16:16:04;20.10;57.50
47791;DHT22;33547;49.044;1.156;2022-11-20T16:18:35;20.10;57.50
47791;DHT22;33547;49.044;1.156;2022-11-20T16:21:01;20.10;57.40
47791;DHT22;33547;49.044;1.156;2022-11-20T16:23:27;20.10;57.50
47791;DHT22;33547;49.044;1.156;2022-11-20T16:25:54;20.10;57.30
47791;DHT22;33547;49.044;1.156;2022-11-20T16:28:20;20.10;57.20
47791;DHT22;33547;49.044;1.156;2022-11-20T16:30:46;20.10;57.20
47791;DHT22;33547;49.044;1.156;2022-11-20T16:33:14;20.10;57.20
47791;DHT22;33547;49.044;1.156;2022-11-20T16:35:40;20.00;57.20
47791;DHT22;33547;49.044;1.156;2022-11-20T16:38:06;20.00;57.30
47791;DHT22;33547;49.044;1.156;2022-11-20T16:40:32;20.00;57.20
47791;DHT22;33547;49.044;1.156;2022-11-20T16:43:07;20.00;57.20
47791;DHT22;33547;49.044;1.156;2022-11-20T16:45:41;20.00;57.10
47791;DHT22;33547;49.044;1.156;2022-11-20T16:48:11;19.90;57.20
47791;DHT22;33547;49.044;1.156;2022-11-20T16:50:45;19.90;57.20
47791;DHT22;33547;49.044;1.156;2022-11-20T16:53:12;19.90;56.90
47791;DHT22;33547;49.044;1.156;2022-11-20T16:55:38;19.90;57.70
47791;DHT22;33547;49.044;1.156;2022-11-20T16:58:04;20.00;57.00
47791;DHT22;33547;49.044;1.156;2022-11-20T17:00:29;20.00;57.00
47791;DHT22;33547;49.044;1.156;2022-11-20T17:02:55;20.00;56.90
47791;DHT22;33547;49.044;1.156;2022-11-20T17:05:21;20.00;56.90
47791;DHT22;33547;49.044;1.156;2022-11-20T17:07:47;20.10;56.90
47791;DHT22;33547;49.044;1.156;2022-11-20T17:10:13;20.10;56.90
47791;DHT22;33547;49.044;1.156;2022-11-20T17:12:38;20.10;56.80
47791;DHT22;33547;49.044;1.156;2022-11-20T17:15:05;20.20;56.80
47791;DHT22;33547;49.044;1.156;2022-11-20T17:17:32;20.20;56.80
47791;DHT22;33547;49.044;1.156;2022-11-20T17:19:57;20.20;56.80
47791;DHT22;33547;49.044;1.156;2022-11-20T17:22:23;20.20;56.70
47791;DHT22;33547;49.044;1.156;2022-11-20T17:24:49;20.20;56.70
47791;DHT22;33547;49.044;1.156;2022-11-20T17:27:15;20.20;56.70
47791;DHT22;33547;49.044;1.156;2022-11-20T17:29:40;20.20;56.70
47791;DHT22;33547;49.044;1.156;2022-11-20T17:32:06;20.20;56.70
47791;DHT22;33547;49.044;1.156;2022-11-20T17:34:32;20.20;56.70
47791;DHT22;33547;49.044;1.156;2022-11-20T17:36:58;20.20;56.70
47791;DHT22;33547;49.044;1.156;2022-11-20T17:39:24;20.30;56.80
47791;DHT22;33547;49.044;1.156;2022-11-20T17:41:49;20.30;56.70
47791;DHT22;33547;49.044;1.156;2022-11-20T17:44:35;20.20;56.60
47791;DHT22;33547;49.044;1.156;2022-11-20T17:47:01;20.20;56.40